Terminal Aerodrome Forecast
Issued by NWS

Current Version | Previous Version | Text Only | Print | Product List | Glossary On
Versions: 1 2 3 4 5 6 7 8 9 10 11 12 13 14 15
000
FTUS44 KLIX 180500
TAFGPT
TAF
KGPT 180520Z 1806/1906 VRB04KT P6SM SCT110 SCT250
     FM181500 08005KT P6SM SCT025
     FM181800 16008KT P6SM SCT035 BKN250 PROB30 1820/1902 4SM -TSRA
      BKN028CB
     FM190200 VRB05KT P6SM SCT045 BKN090=

USA.gov is the U.S. government's official web portal to all federal, state and local government web resources and services.